sensor_id;sensor_type;location;lat;lon;timestamp;temperature;humidity
32895;DHT22;19251;49.484;8.260;2023-12-22T00:00:56;10.60;20.10
32895;DHT22;19251;49.484;8.260;2023-12-22T00:05:58;10.50;20.30
32895;DHT22;19251;49.484;8.260;2023-12-22T00:11:00;10.40;20.50
32895;DHT22;19251;49.484;8.260;2023-12-22T00:16:02;10.30;20.40
32895;DHT22;19251;49.484;8.260;2023-12-22T00:21:04;10.30;20.60
32895;DHT22;19251;49.484;8.260;2023-12-22T00:26:06;10.20;20.60
32895;DHT22;19251;49.484;8.260;2023-12-22T00:31:09;10.10;20.90
32895;DHT22;19251;49.484;8.260;2023-12-22T00:36:11;10.10;21.10
32895;DHT22;19251;49.484;8.260;2023-12-22T00:41:13;10.10;21.20
32895;DHT22;19251;49.484;8.260;2023-12-22T00:46:15;10.20;21.20
32895;DHT22;19251;49.484;8.260;2023-12-22T00:51:17;10.10;21.20
32895;DHT22;19251;49.484;8.260;2023-12-22T00:56:19;10.10;21.50
32895;DHT22;19251;49.484;8.260;2023-12-22T01:01:21;10.00;21.80
32895;DHT22;19251;49.484;8.260;2023-12-22T01:06:24;10.10;22.70
32895;DHT22;19251;49.484;8.260;2023-12-22T01:11:30;10.10;23.10
32895;DHT22;19251;49.484;8.260;2023-12-22T01:16:32;10.20;23.30
32895;DHT22;19251;49.484;8.260;2023-12-22T01:21:34;10.30;23.30
32895;DHT22;19251;49.484;8.260;2023-12-22T01:26:36;10.30;23.20
32895;DHT22;19251;49.484;8.260;2023-12-22T01:31:38;10.30;23.20
32895;DHT22;19251;49.484;8.260;2023-12-22T01:36:40;10.30;22.80
32895;DHT22;19251;49.484;8.260;2023-12-22T01:41:44;10.30;22.60
32895;DHT22;19251;49.484;8.260;2023-12-22T01:46:46;10.50;22.30
32895;DHT22;19251;49.484;8.260;2023-12-22T01:51:48;10.70;22.20
32895;DHT22;19251;49.484;8.260;2023-12-22T01:56:51;10.80;21.60
32895;DHT22;19251;49.484;8.260;2023-12-22T02:01:53;10.90;20.90
32895;DHT22;19251;49.484;8.260;2023-12-22T02:07:01;11.10;20.80
32895;DHT22;19251;49.484;8.260;2023-12-22T02:12:03;11.20;20.80
32895;DHT22;19251;49.484;8.260;2023-12-22T02:22:23;11.30;20.40
32895;DHT22;19251;49.484;8.260;2023-12-22T02:27:40;11.30;20.40
32895;DHT22;19251;49.484;8.260;2023-12-22T02:32:47;11.30;20.40
32895;DHT22;19251;49.484;8.260;2023-12-22T02:37:52;11.30;20.40
32895;DHT22;19251;49.484;8.260;2023-12-22T02:42:55;11.30;20.40
32895;DHT22;19251;49.484;8.260;2023-12-22T02:47:58;11.30;20.60
32895;DHT22;19251;49.484;8.260;2023-12-22T02:53:00;11.30;20.70
32895;DHT22;19251;49.484;8.260;2023-12-22T02:58:02;11.30;20.60
32895;DHT22;19251;49.484;8.260;2023-12-22T03:03:04;11.30;20.60
32895;DHT22;19251;49.484;8.260;2023-12-22T03:08:06;11.30;20.40
32895;DHT22;19251;49.484;8.260;2023-12-22T03:13:08;11.20;20.30
32895;DHT22;19251;49.484;8.260;2023-12-22T03:18:10;11.20;20.30
32895;DHT22;19251;49.484;8.260;2023-12-22T03:23:12;11.20;20.10
32895;DHT22;19251;49.484;8.260;2023-12-22T03:28:14;11.30;19.80
32895;DHT22;19251;49.484;8.260;2023-12-22T03:33:16;11.20;19.40
32895;DHT22;19251;49.484;8.260;2023-12-22T03:38:18;11.60;19.10
32895;DHT22;19251;49.484;8.260;2023-12-22T03:43:21;11.50;18.90
32895;DHT22;19251;49.484;8.260;2023-12-22T03:48:23;11.50;18.60
32895;DHT22;19251;49.484;8.260;2023-12-22T03:53:25;11.70;18.50
32895;DHT22;19251;49.484;8.260;2023-12-22T03:58:27;11.70;18.10
32895;DHT22;19251;49.484;8.260;2023-12-22T04:03:31;11.60;18.30
32895;DHT22;19251;49.484;8.260;2023-12-22T04:08:34;11.60;18.00
32895;DHT22;19251;49.484;8.260;2023-12-22T04:13:36;11.50;17.90
32895;DHT22;19251;49.484;8.260;2023-12-22T04:18:38;11.50;18.30
32895;DHT22;19251;49.484;8.260;2023-12-22T04:23:40;11.40;17.70
32895;DHT22;19251;49.484;8.260;2023-12-22T04:28:42;11.50;17.90
32895;DHT22;19251;49.484;8.260;2023-12-22T04:33:44;11.50;18.00
32895;DHT22;19251;49.484;8.260;2023-12-22T04:43:49;11.60;18.30
32895;DHT22;19251;49.484;8.260;2023-12-22T04:48:51;11.40;18.90
32895;DHT22;19251;49.484;8.260;2023-12-22T04:53:53;11.40;19.40
32895;DHT22;19251;49.484;8.260;2023-12-22T04:58:55;11.30;19.60
32895;DHT22;19251;49.484;8.260;2023-12-22T05:03:58;11.30;20.00
32895;DHT22;19251;49.484;8.260;2023-12-22T05:09:00;11.30;20.40
32895;DHT22;19251;49.484;8.260;2023-12-22T05:14:02;11.10;20.50
32895;DHT22;19251;49.484;8.260;2023-12-22T05:19:04;11.10;20.80
32895;DHT22;19251;49.484;8.260;2023-12-22T05:24:11;11.00;20.80
32895;DHT22;19251;49.484;8.260;2023-12-22T05:29:13;10.90;20.90
32895;DHT22;19251;49.484;8.260;2023-12-22T05:34:15;10.90;21.00
32895;DHT22;19251;49.484;8.260;2023-12-22T05:39:17;10.90;21.00
32895;DHT22;19251;49.484;8.260;2023-12-22T05:44:19;10.90;21.10
32895;DHT22;19251;49.484;8.260;2023-12-22T05:49:21;10.90;20.90
32895;DHT22;19251;49.484;8.260;2023-12-22T05:54:24;10.90;20.90
32895;DHT22;19251;49.484;8.260;2023-12-22T05:59:27;10.90;20.80
32895;DHT22;19251;49.484;8.260;2023-12-22T06:04:29;10.90;20.70
32895;DHT22;19251;49.484;8.260;2023-12-22T06:09:32;10.90;20.80
32895;DHT22;19251;49.484;8.260;2023-12-22T06:14:34;11.00;20.80
32895;DHT22;19251;49.484;8.260;2023-12-22T06:19:36;11.00;20.60
32895;DHT22;19251;49.484;8.260;2023-12-22T06:24:38;11.00;20.50
32895;DHT22;19251;49.484;8.260;2023-12-22T06:29:43;11.10;20.20
32895;DHT22;19251;49.484;8.260;2023-12-22T06:34:45;11.20;20.10
32895;DHT22;19251;49.484;8.260;2023-12-22T06:39:47;11.20;19.70
32895;DHT22;19251;49.484;8.260;2023-12-22T06:44:49;11.30;19.70
32895;DHT22;19251;49.484;8.260;2023-12-22T06:49:52;11.30;19.30
32895;DHT22;19251;49.484;8.260;2023-12-22T06:54:55;11.30;18.70
32895;DHT22;19251;49.484;8.260;2023-12-22T06:59:59;11.30;18.60
32895;DHT22;19251;49.484;8.260;2023-12-22T07:10:25;11.40;17.40
32895;DHT22;19251;49.484;8.260;2023-12-22T07:15:28;11.50;17.60
32895;DHT22;19251;49.484;8.260;2023-12-22T07:20:30;11.50;17.30
32895;DHT22;19251;49.484;8.260;2023-12-22T07:25:38;11.50;17.50
32895;DHT22;19251;49.484;8.260;2023-12-22T07:30:40;11.50;18.10
32895;DHT22;19251;49.484;8.260;2023-12-22T07:35:42;11.60;18.10
32895;DHT22;19251;49.484;8.260;2023-12-22T07:45:49;11.60;17.70
32895;DHT22;19251;49.484;8.260;2023-12-22T07:50:54;11.60;17.90
32895;DHT22;19251;49.484;8.260;2023-12-22T07:55:56;11.60;18.70
32895;DHT22;19251;49.484;8.260;2023-12-22T08:01:01;11.60;19.00
32895;DHT22;19251;49.484;8.260;2023-12-22T08:06:03;11.60;19.00
32895;DHT22;19251;49.484;8.260;2023-12-22T08:11:05;11.60;19.20
32895;DHT22;19251;49.484;8.260;2023-12-22T08:16:09;11.60;19.40
32895;DHT22;19251;49.484;8.260;2023-12-22T08:21:13;11.60;19.60
32895;DHT22;19251;49.484;8.260;2023-12-22T08:26:29;11.60;19.70
32895;DHT22;19251;49.484;8.260;2023-12-22T08:31:32;11.60;19.70
32895;DHT22;19251;49.484;8.260;2023-12-22T08:36:34;11.60;19.70
32895;DHT22;19251;49.484;8.260;2023-12-22T08:41:37;11.70;19.80
32895;DHT22;19251;49.484;8.260;2023-12-22T08:46:40;11.70;19.80
32895;DHT22;19251;49.484;8.260;2023-12-22T08:51:42;11.80;19.90
32895;DHT22;19251;49.484;8.260;2023-12-22T08:56:45;11.80;19.60
32895;DHT22;19251;49.484;8.260;2023-12-22T09:01:47;11.90;19.70
32895;DHT22;19251;49.484;8.260;2023-12-22T09:06:49;11.90;19.60
32895;DHT22;19251;49.484;8.260;2023-12-22T09:11:51;12.00;19.60
32895;DHT22;19251;49.484;8.260;2023-12-22T09:16:54;12.00;19.60
32895;DHT22;19251;49.484;8.260;2023-12-22T09:21:58;12.00;19.50
32895;DHT22;19251;49.484;8.260;2023-12-22T09:27:00;12.10;19.60
32895;DHT22;19251;49.484;8.260;2023-12-22T09:32:05;12.20;19.50
32895;DHT22;19251;49.484;8.260;2023-12-22T09:42:09;12.30;19.20
32895;DHT22;19251;49.484;8.260;2023-12-22T09:47:16;12.30;19.00
32895;DHT22;19251;49.484;8.260;2023-12-22T09:52:19;12.60;19.10
32895;DHT22;19251;49.484;8.260;2023-12-22T09:57:24;12.40;18.80
32895;DHT22;19251;49.484;8.260;2023-12-22T10:02:30;12.40;18.60
32895;DHT22;19251;49.484;8.260;2023-12-22T10:07:32;12.50;18.40
32895;DHT22;19251;49.484;8.260;2023-12-22T10:12:35;12.50;18.50
32895;DHT22;19251;49.484;8.260;2023-12-22T10:17:38;12.60;18.50
32895;DHT22;19251;49.484;8.260;2023-12-22T10:22:40;12.60;18.40
32895;DHT22;19251;49.484;8.260;2023-12-22T10:27:43;12.80;18.60
32895;DHT22;19251;49.484;8.260;2023-12-22T10:32:45;12.80;18.50
32895;DHT22;19251;49.484;8.260;2023-12-22T10:37:47;12.80;18.40
32895;DHT22;19251;49.484;8.260;2023-12-22T10:42:50;12.80;18.30
32895;DHT22;19251;49.484;8.260;2023-12-22T10:47:52;12.80;18.30
32895;DHT22;19251;49.484;8.260;2023-12-22T10:52:56;12.90;18.40
32895;DHT22;19251;49.484;8.260;2023-12-22T10:58:01;12.90;18.30
32895;DHT22;19251;49.484;8.260;2023-12-22T11:03:05;13.00;18.60
32895;DHT22;19251;49.484;8.260;2023-12-22T11:08:08;13.00;18.90
32895;DHT22;19251;49.484;8.260;2023-12-22T11:13:13;13.00;19.10
32895;DHT22;19251;49.484;8.260;2023-12-22T11:18:16;13.00;19.30
32895;DHT22;19251;49.484;8.260;2023-12-22T11:23:20;13.00;19.40
32895;DHT22;19251;49.484;8.260;2023-12-22T11:28:24;13.10;19.40
32895;DHT22;19251;49.484;8.260;2023-12-22T11:33:27;13.10;19.50
32895;DHT22;19251;49.484;8.260;2023-12-22T11:38:30;13.10;19.40
32895;DHT22;19251;49.484;8.260;2023-12-22T11:43:34;13.20;19.60
32895;DHT22;19251;49.484;8.260;2023-12-22T11:48:37;13.20;19.70
32895;DHT22;19251;49.484;8.260;2023-12-22T11:53:39;13.20;19.90
32895;DHT22;19251;49.484;8.260;2023-12-22T12:03:57;13.20;20.30
32895;DHT22;19251;49.484;8.260;2023-12-22T12:09:06;13.10;20.60
32895;DHT22;19251;49.484;8.260;2023-12-22T12:14:10;13.10;20.80
32895;DHT22;19251;49.484;8.260;2023-12-22T12:19:16;13.10;21.20
32895;DHT22;19251;49.484;8.260;2023-12-22T12:24:18;13.10;21.90
32895;DHT22;19251;49.484;8.260;2023-12-22T12:29:20;13.00;22.10
32895;DHT22;19251;49.484;8.260;2023-12-22T12:34:23;13.00;22.30
32895;DHT22;19251;49.484;8.260;2023-12-22T12:39:25;12.90;22.60
32895;DHT22;19251;49.484;8.260;2023-12-22T12:44:31;13.00;23.00
32895;DHT22;19251;49.484;8.260;2023-12-22T12:49:36;13.00;23.30
32895;DHT22;19251;49.484;8.260;2023-12-22T12:54:39;13.00;23.50
32895;DHT22;19251;49.484;8.260;2023-12-22T12:59:44;13.00;23.70
32895;DHT22;19251;49.484;8.260;2023-12-22T13:04:46;13.00;23.70
32895;DHT22;19251;49.484;8.260;2023-12-22T13:09:49;13.00;23.60
32895;DHT22;19251;49.484;8.260;2023-12-22T13:14:51;13.10;23.60
32895;DHT22;19251;49.484;8.260;2023-12-22T13:19:53;13.20;23.60
32895;DHT22;19251;49.484;8.260;2023-12-22T13:24:55;13.30;23.20
32895;DHT22;19251;49.484;8.260;2023-12-22T13:30:01;13.40;23.20
32895;DHT22;19251;49.484;8.260;2023-12-22T13:35:03;13.40;23.10
32895;DHT22;19251;49.484;8.260;2023-12-22T13:40:07;13.50;23.20
32895;DHT22;19251;49.484;8.260;2023-12-22T13:45:10;13.60;23.20
32895;DHT22;19251;49.484;8.260;2023-12-22T13:50:14;13.60;23.20
32895;DHT22;19251;49.484;8.260;2023-12-22T13:55:19;13.60;23.00
32895;DHT22;19251;49.484;8.260;2023-12-22T14:05:23;13.70;22.70
32895;DHT22;19251;49.484;8.260;2023-12-22T14:10:26;13.70;22.50
32895;DHT22;19251;49.484;8.260;2023-12-22T14:15:28;13.70;22.30
32895;DHT22;19251;49.484;8.260;2023-12-22T14:20:45;13.80;22.40
32895;DHT22;19251;49.484;8.260;2023-12-22T14:25:48;13.80;22.30
32895;DHT22;19251;49.484;8.260;2023-12-22T14:30:50;13.80;22.30
32895;DHT22;19251;49.484;8.260;2023-12-22T14:35:52;13.70;22.20
32895;DHT22;19251;49.484;8.260;2023-12-22T14:40:54;13.70;22.20
32895;DHT22;19251;49.484;8.260;2023-12-22T14:45:57;13.70;22.20
32895;DHT22;19251;49.484;8.260;2023-12-22T14:50:59;13.70;22.50
32895;DHT22;19251;49.484;8.260;2023-12-22T14:56:01;13.70;22.80
32895;DHT22;19251;49.484;8.260;2023-12-22T15:01:05;13.70;23.00
32895;DHT22;19251;49.484;8.260;2023-12-22T15:06:07;13.60;22.90
32895;DHT22;19251;49.484;8.260;2023-12-22T15:11:10;13.60;23.00
32895;DHT22;19251;49.484;8.260;2023-12-22T15:16:14;13.50;23.10
32895;DHT22;19251;49.484;8.260;2023-12-22T15:21:22;13.50;23.00
32895;DHT22;19251;49.484;8.260;2023-12-22T15:26:25;13.50;22.90
32895;DHT22;19251;49.484;8.260;2023-12-22T15:36:33;13.50;22.70
32895;DHT22;19251;49.484;8.260;2023-12-22T15:41:36;13.50;22.50
32895;DHT22;19251;49.484;8.260;2023-12-22T15:46:38;13.60;22.50
32895;DHT22;19251;49.484;8.260;2023-12-22T15:51:40;13.60;22.50
32895;DHT22;19251;49.484;8.260;2023-12-22T15:56:43;13.60;22.40
32895;DHT22;19251;49.484;8.260;2023-12-22T16:01:45;13.60;22.40
32895;DHT22;19251;49.484;8.260;2023-12-22T16:11:49;13.60;22.10
32895;DHT22;19251;49.484;8.260;2023-12-22T16:16:55;13.60;22.10
32895;DHT22;19251;49.484;8.260;2023-12-22T16:22:00;13.50;22.10
32895;DHT22;19251;49.484;8.260;2023-12-22T16:27:03;13.60;22.10
32895;DHT22;19251;49.484;8.260;2023-12-22T16:32:05;13.60;22.00
32895;DHT22;19251;49.484;8.260;2023-12-22T16:37:08;13.60;21.70
32895;DHT22;19251;49.484;8.260;2023-12-22T16:42:10;13.60;21.70
32895;DHT22;19251;49.484;8.260;2023-12-22T16:47:12;13.70;21.60
32895;DHT22;19251;49.484;8.260;2023-12-22T16:52:16;13.70;21.40
32895;DHT22;19251;49.484;8.260;2023-12-22T16:57:18;13.70;21.20
32895;DHT22;19251;49.484;8.260;2023-12-22T17:02:20;13.70;21.10
32895;DHT22;19251;49.484;8.260;2023-12-22T17:07:34;13.70;20.90
32895;DHT22;19251;49.484;8.260;2023-12-22T17:17:45;13.80;20.90
32895;DHT22;19251;49.484;8.260;2023-12-22T17:22:48;13.70;20.90
32895;DHT22;19251;49.484;8.260;2023-12-22T17:27:50;13.70;20.80
32895;DHT22;19251;49.484;8.260;2023-12-22T17:32:53;13.70;21.00
32895;DHT22;19251;49.484;8.260;2023-12-22T17:38:01;13.70;21.20
32895;DHT22;19251;49.484;8.260;2023-12-22T17:43:04;13.70;21.20
32895;DHT22;19251;49.484;8.260;2023-12-22T17:48:06;13.60;21.30
32895;DHT22;19251;49.484;8.260;2023-12-22T17:53:08;13.60;21.30
32895;DHT22;19251;49.484;8.260;2023-12-22T17:58:11;13.60;21.20
32895;DHT22;19251;49.484;8.260;2023-12-22T18:03:13;13.60;21.20
32895;DHT22;19251;49.484;8.260;2023-12-22T18:08:15;13.90;21.40
32895;DHT22;19251;49.484;8.260;2023-12-22T18:13:17;13.60;21.20
32895;DHT22;19251;49.484;8.260;2023-12-22T18:18:19;13.50;21.20
32895;DHT22;19251;49.484;8.260;2023-12-22T18:23:22;13.60;21.30
32895;DHT22;19251;49.484;8.260;2023-12-22T18:28:24;13.60;21.30
32895;DHT22;19251;49.484;8.260;2023-12-22T18:33:26;13.50;21.20
32895;DHT22;19251;49.484;8.260;2023-12-22T18:43:31;13.50;21.20
32895;DHT22;19251;49.484;8.260;2023-12-22T18:48:33;13.60;21.20
32895;DHT22;19251;49.484;8.260;2023-12-22T18:53:36;13.60;21.10
32895;DHT22;19251;49.484;8.260;2023-12-22T18:58:39;13.70;21.10
32895;DHT22;19251;49.484;8.260;2023-12-22T19:03:42;13.70;21.10
32895;DHT22;19251;49.484;8.260;2023-12-22T19:08:47;13.60;20.80
32895;DHT22;19251;49.484;8.260;2023-12-22T19:13:50;13.70;20.80
32895;DHT22;19251;49.484;8.260;2023-12-22T19:18:52;13.70;20.90
32895;DHT22;19251;49.484;8.260;2023-12-22T19:28:57;13.60;20.70
32895;DHT22;19251;49.484;8.260;2023-12-22T19:33:59;13.60;20.70
32895;DHT22;19251;49.484;8.260;2023-12-22T19:39:01;13.60;20.50
32895;DHT22;19251;49.484;8.260;2023-12-22T19:44:04;13.60;20.60
32895;DHT22;19251;49.484;8.260;2023-12-22T19:49:06;13.60;20.60
32895;DHT22;19251;49.484;8.260;2023-12-22T19:54:08;13.60;20.50
32895;DHT22;19251;49.484;8.260;2023-12-22T19:59:10;13.50;20.70
32895;DHT22;19251;49.484;8.260;2023-12-22T20:04:12;13.50;21.00
32895;DHT22;19251;49.484;8.260;2023-12-22T20:09:14;13.50;20.90
32895;DHT22;19251;49.484;8.260;2023-12-22T20:14:17;13.40;20.80
32895;DHT22;19251;49.484;8.260;2023-12-22T20:19:19;13.40;20.90
32895;DHT22;19251;49.484;8.260;2023-12-22T20:24:22;13.40;21.00
32895;DHT22;19251;49.484;8.260;2023-12-22T20:29:27;13.40;20.90
32895;DHT22;19251;49.484;8.260;2023-12-22T20:34:29;13.30;20.80
32895;DHT22;19251;49.484;8.260;2023-12-22T20:39:31;13.30;20.90
32895;DHT22;19251;49.484;8.260;2023-12-22T20:44:33;13.30;20.70
32895;DHT22;19251;49.484;8.260;2023-12-22T20:49:36;13.30;20.10
32895;DHT22;19251;49.484;8.260;2023-12-22T20:54:40;13.30;19.80
32895;DHT22;19251;49.484;8.260;2023-12-22T20:59:42;13.30;19.90
32895;DHT22;19251;49.484;8.260;2023-12-22T21:04:47;13.30;19.80
32895;DHT22;19251;49.484;8.260;2023-12-22T21:09:52;13.50;19.90
32895;DHT22;19251;49.484;8.260;2023-12-22T21:14:54;13.30;20.00
32895;DHT22;19251;49.484;8.260;2023-12-22T21:19:56;13.20;20.20
32895;DHT22;19251;49.484;8.260;2023-12-22T21:24:59;13.20;20.50
32895;DHT22;19251;49.484;8.260;2023-12-22T21:30:01;13.10;20.60
32895;DHT22;19251;49.484;8.260;2023-12-22T21:35:05;13.20;20.60
32895;DHT22;19251;49.484;8.260;2023-12-22T21:40:08;13.10;20.70
32895;DHT22;19251;49.484;8.260;2023-12-22T21:45:14;13.10;20.70
32895;DHT22;19251;49.484;8.260;2023-12-22T21:50:18;13.10;20.80
32895;DHT22;19251;49.484;8.260;2023-12-22T21:55:20;13.20;20.80
32895;DHT22;19251;49.484;8.260;2023-12-22T22:00:23;13.10;20.80
32895;DHT22;19251;49.484;8.260;2023-12-22T22:05:25;13.10;20.90
32895;DHT22;19251;49.484;8.260;2023-12-22T22:10:29;13.20;20.80
32895;DHT22;19251;49.484;8.260;2023-12-22T22:15:31;13.20;20.70
32895;DHT22;19251;49.484;8.260;2023-12-22T22:20:34;13.20;20.70
32895;DHT22;19251;49.484;8.260;2023-12-22T22:25:38;13.10;20.80
32895;DHT22;19251;49.484;8.260;2023-12-22T22:30:40;13.20;21.00
32895;DHT22;19251;49.484;8.260;2023-12-22T22:35:44;13.10;21.20
32895;DHT22;19251;49.484;8.260;2023-12-22T22:40:48;13.10;21.50
32895;DHT22;19251;49.484;8.260;2023-12-22T22:45:50;13.00;21.60
32895;DHT22;19251;49.484;8.260;2023-12-22T22:50:52;13.00;21.70
32895;DHT22;19251;49.484;8.260;2023-12-22T22:55:55;13.00;21.70
32895;DHT22;19251;49.484;8.260;2023-12-22T23:00:57;12.90;21.60
32895;DHT22;19251;49.484;8.260;2023-12-22T23:06:02;12.90;21.60
32895;DHT22;19251;49.484;8.260;2023-12-22T23:11:04;12.90;21.60
32895;DHT22;19251;49.484;8.260;2023-12-22T23:16:10;12.90;21.60
32895;DHT22;19251;49.484;8.260;2023-12-22T23:21:14;12.80;21.50
32895;DHT22;19251;49.484;8.260;2023-12-22T23:26:16;12.80;21.50
32895;DHT22;19251;49.484;8.260;2023-12-22T23:31:18;12.80;21.30
32895;DHT22;19251;49.484;8.260;2023-12-22T23:36:20;12.80;21.50
32895;DHT22;19251;49.484;8.260;2023-12-22T23:41:29;13.00;21.70
32895;DHT22;19251;49.484;8.260;2023-12-22T23:46:31;12.70;21.50
32895;DHT22;19251;49.484;8.260;2023-12-22T23:51:33;12.70;21.50
32895;DHT22;19251;49.484;8.260;2023-12-22T23:56:35;12.70;21.70
